Main page
METAR-TAF:

Airports :

Current weather observation

The report was made 1 hour and 8 minutes ago, at 11:00 UTC
Wind 10 kt from the North
Temperature 38°C
Humidity 16%
Pressure 1006 hPa
Visibility 10 km or more
no clouds below 1500 m and no cumulonimbus

METAR: OTBD 271100Z 35010KT CAVOK 38/08 Q1006 NOSIG

Time: 12:08 (12:08 UTC)

Forecast

The report was made 1 hour and 8 minutes ago, at 11:00 UTC
Forecast valid from 27 at 12 UTC to 28 at 18 UTC
Wind 9 kt from the North/Northwest
Visibility 10 km or more
no clouds below 1500 m and no cumulonimbus
Becoming
from 28 at 10 UTC to 28 at 12 UTC
Wind 10 kt from the North/Northeast

TAF: OTBD 271100Z 2712/2818 34009KT CAVOK BECMG 2810/2812 03010KT

METAR-TAF

Weather observations and forecasts of more than 4000 airports (METAR and TAF reports).

The available stations are represented by yellow and red dots on the map.

Hover mouse over dot to see the name of the station.

Then click to see weather observations and forecasts.

To change the map : click on the green buttons with a black cross to zoom in, on the green button with a dash to zoom out, or on the green arrows for adjacent maps.


METAR-TAF: